createdAt,value
2019-02-22T00:02:10.321Z,52.60
2019-02-22T00:04:39.102Z,49.03
2019-02-22T00:07:07.958Z,47.17
2019-02-22T00:09:37.136Z,47.05
2019-02-22T00:12:06.005Z,45.12
2019-02-22T00:14:35.170Z,43.40
2019-02-22T00:17:03.961Z,42.50
2019-02-22T00:19:32.863Z,37.63
2019-02-22T00:22:01.962Z,35.40
2019-02-22T00:24:30.759Z,35.05
2019-02-22T00:26:59.591Z,32.93
2019-02-22T00:29:28.735Z,31.52
2019-02-22T00:31:58.130Z,30.68
2019-02-22T00:34:27.347Z,27.15
2019-02-22T00:36:56.174Z,28.23
2019-02-22T00:39:25.457Z,29.35
2019-02-22T00:41:54.875Z,26.17
2019-02-22T00:44:23.681Z,24.50
2019-02-22T00:46:52.447Z,25.32
2019-02-22T00:49:21.223Z,25.08
2019-02-22T00:51:50.080Z,20.95
2019-02-22T00:54:18.854Z,19.55
2019-02-22T00:56:47.728Z,19.95
2019-02-22T00:59:16.555Z,20.02
2019-02-22T01:01:45.448Z,20.77
2019-02-22T01:04:14.627Z,19.85
2019-02-22T01:06:43.495Z,19.55
2019-02-22T01:09:12.440Z,19.12
2019-02-22T01:11:41.247Z,19.30
2019-02-22T01:14:10.022Z,20.02
2019-02-22T01:16:39.278Z,19.42
2019-02-22T01:19:08.113Z,20.57
2019-02-22T01:21:36.875Z,19.05
2019-02-22T01:24:05.652Z,19.12
2019-02-22T01:26:34.559Z,18.80
2019-02-22T01:29:03.471Z,20.08
2019-02-22T01:31:32.989Z,18.25
2019-02-22T01:34:02.152Z,19.87
2019-02-22T01:36:30.937Z,17.67
2019-02-22T01:38:59.714Z,19.42
2019-02-22T01:41:28.796Z,20.17
2019-02-22T01:43:57.570Z,17.67
2019-02-22T01:46:26.405Z,17.95
2019-02-22T01:48:55.270Z,18.35
2019-02-22T01:51:24.254Z,16.90
2019-02-22T01:53:54.107Z,17.10
2019-02-22T01:56:22.990Z,17.98
2019-02-22T01:58:51.791Z,16.95
2019-02-22T02:01:20.561Z,17.73
2019-02-22T02:03:49.347Z,17.82
2019-02-22T02:06:18.406Z,19.57
2019-02-22T02:08:47.196Z,17.87
2019-02-22T02:11:15.974Z,19.05
2019-02-22T02:13:44.765Z,20.80
2019-02-22T02:16:13.529Z,19.73
2019-02-22T02:18:42.329Z,20.70
2019-02-22T02:21:11.124Z,20.68
2019-02-22T02:23:39.940Z,21.07
2019-02-22T02:26:09.541Z,18.05
2019-02-22T02:28:39.139Z,20.57
2019-02-22T02:31:07.927Z,20.52
2019-02-22T02:33:37.414Z,21.50
2019-02-22T02:36:06.370Z,21.00
2019-02-22T02:38:35.237Z,21.33
2019-02-22T02:41:08.438Z,20.45
2019-02-22T02:43:35.192Z,17.70
2019-02-22T02:46:03.984Z,17.35
2019-02-22T02:48:33.146Z,19.52
2019-02-22T02:51:02.614Z,17.37
2019-02-22T02:53:31.381Z,21.70
2019-02-22T02:56:00.702Z,18.75
2019-02-22T02:58:29.509Z,20.30
2019-02-22T03:00:58.314Z,22.50
2019-02-22T03:03:27.871Z,21.48
2019-02-22T03:06:34.239Z,23.00
2019-02-22T03:09:04.930Z,21.95
2019-02-22T03:11:34.713Z,23.98
2019-02-22T03:14:04.593Z,23.00
2019-02-22T03:16:34.511Z,23.30
2019-02-22T03:19:04.601Z,25.75
2019-02-22T03:21:33.401Z,24.12
2019-02-22T03:24:02.816Z,28.10
2019-02-22T03:26:31.649Z,24.37
2019-02-22T03:29:00.513Z,26.35
2019-02-22T03:31:30.220Z,26.02
2019-02-22T03:33:59.654Z,26.80
2019-02-22T03:36:28.771Z,26.85
2019-02-22T03:38:57.556Z,28.47
2019-02-22T03:41:32.755Z,27.42
2019-02-22T03:43:58.072Z,26.55
2019-02-22T03:46:26.828Z,27.27
2019-02-22T03:48:56.010Z,27.25
2019-02-22T03:51:25.604Z,27.02
2019-02-22T03:54:00.324Z,26.75
2019-02-22T03:56:30.302Z,25.85
2019-02-22T03:59:00.307Z,27.02
2019-02-22T04:01:29.655Z,27.73
2019-02-22T04:03:59.683Z,26.48
2019-02-22T04:06:28.756Z,24.72
2019-02-22T04:08:57.842Z,26.77
2019-02-22T04:11:27.448Z,27.15
2019-02-22T04:13:56.759Z,27.73
2019-02-22T04:16:25.935Z,26.57
2019-02-22T04:18:55.282Z,26.68
2019-02-22T04:21:24.119Z,28.83
2019-02-22T04:23:53.326Z,30.17
2019-02-22T04:26:23.852Z,25.60
2019-02-22T04:28:55.121Z,24.47
2019-02-22T04:31:24.920Z,25.08
2019-02-22T04:33:54.085Z,25.80
2019-02-22T04:36:23.289Z,27.73
2019-02-22T04:38:52.270Z,27.60
2019-02-22T04:41:21.304Z,28.15
2019-02-22T04:43:50.444Z,28.15
2019-02-22T04:46:19.305Z,28.50
2019-02-22T04:48:49.102Z,28.45
2019-02-22T04:51:18.652Z,28.12
2019-02-22T04:53:48.524Z,30.10
2019-02-22T04:56:18.408Z,29.77
2019-02-22T04:58:47.885Z,28.07
2019-02-22T05:01:17.356Z,28.02
2019-02-22T05:03:46.504Z,28.85
2019-02-22T05:06:15.696Z,29.02
2019-02-22T05:08:44.845Z,29.35
2019-02-22T05:11:13.606Z,29.85
2019-02-22T05:13:42.794Z,27.80
2019-02-22T05:16:12.645Z,29.77
2019-02-22T05:18:42.346Z,29.70
2019-02-22T05:21:11.997Z,28.17
2019-02-22T05:23:42.294Z,28.00
2019-02-22T05:26:12.135Z,29.60
2019-02-22T05:28:41.968Z,29.10
2019-02-22T05:31:11.502Z,29.25
2019-02-22T05:33:40.654Z,28.77
2019-02-22T05:36:09.782Z,30.15
2019-02-22T05:38:38.549Z,30.85
2019-02-22T05:41:07.309Z,30.25
2019-02-22T05:43:36.139Z,29.87
2019-02-22T05:46:05.613Z,27.58
2019-02-22T05:48:34.695Z,30.02
2019-02-22T05:51:04.242Z,28.52
2019-02-22T05:53:33.983Z,28.67
2019-02-22T05:56:03.568Z,31.68
2019-02-22T05:58:32.341Z,29.80
2019-02-22T06:01:01.923Z,29.50
2019-02-22T06:03:31.039Z,30.45
2019-02-22T06:05:59.874Z,32.40
2019-02-22T06:08:28.653Z,30.77
2019-02-22T06:10:57.437Z,30.37
2019-02-22T06:13:26.228Z,30.10
2019-02-22T06:15:55.031Z,31.40
2019-02-22T06:18:24.205Z,30.15
2019-02-22T06:20:52.978Z,30.15
2019-02-22T06:23:23.411Z,30.23
2019-02-22T06:25:55.572Z,29.50
2019-02-22T06:28:24.837Z,31.02
2019-02-22T06:30:54.008Z,29.12
2019-02-22T06:33:22.761Z,28.27
2019-02-22T06:35:52.539Z,31.40
2019-02-22T06:38:21.401Z,32.98
2019-02-22T06:40:50.205Z,29.50
2019-02-22T06:43:19.320Z,29.02
2019-02-22T06:45:48.724Z,26.73
2019-02-22T06:48:17.581Z,28.70
2019-02-22T06:50:46.348Z,32.35
2019-02-22T06:53:15.258Z,28.87
2019-02-22T06:55:44.410Z,25.62
2019-02-22T06:58:13.606Z,29.15
2019-02-22T07:00:42.370Z,29.05
2019-02-22T07:03:11.202Z,31.57
2019-02-22T07:05:39.979Z,29.42
2019-02-22T07:08:08.819Z,29.70
2019-02-22T07:10:55.512Z,30.68
2019-02-22T07:13:36.421Z,28.60
2019-02-22T07:16:05.587Z,27.30
2019-02-22T07:18:34.377Z,29.35
2019-02-22T07:21:03.256Z,28.75
2019-02-22T07:23:32.045Z,30.95
2019-02-22T07:26:00.937Z,30.95
2019-02-22T07:28:29.750Z,27.48
2019-02-22T07:30:58.528Z,30.92
2019-02-22T07:33:27.355Z,30.37
2019-02-22T07:35:56.170Z,32.08
2019-02-22T07:38:25.273Z,34.05
2019-02-22T07:40:54.068Z,33.60
2019-02-22T07:43:22.875Z,34.38
2019-02-22T07:45:51.656Z,33.00
2019-02-22T07:48:20.431Z,34.70
2019-02-22T07:50:57.441Z,35.63
2019-02-22T07:53:19.756Z,31.85
2019-02-22T07:55:48.540Z,34.55
2019-02-22T07:58:17.349Z,35.40
2019-02-22T08:00:46.234Z,36.58
2019-02-22T08:03:15.010Z,34.92
2019-02-22T08:05:44.187Z,32.38
2019-02-22T08:08:12.988Z,35.90
2019-02-22T08:10:41.802Z,32.83
2019-02-22T08:13:19.244Z,33.80
2019-02-22T08:15:41.191Z,34.33
2019-02-22T08:18:10.019Z,33.98
2019-02-22T08:20:38.813Z,34.33
2019-02-22T08:23:07.586Z,30.30
2019-02-22T08:25:40.236Z,33.40
2019-02-22T08:28:09.083Z,33.05
2019-02-22T08:30:37.975Z,36.03
2019-02-22T08:33:06.905Z,35.52
2019-02-22T08:35:35.677Z,32.28
2019-02-22T08:38:04.644Z,35.65
2019-02-22T08:40:33.441Z,36.55
2019-02-22T08:43:02.244Z,35.85
2019-02-22T08:45:31.038Z,31.15
2019-02-22T08:47:59.827Z,34.58
2019-02-22T08:50:28.594Z,36.85
2019-02-22T08:52:57.391Z,34.63
2019-02-22T08:55:26.528Z,33.15
2019-02-22T08:57:55.308Z,33.60
2019-02-22T09:00:24.173Z,33.33
2019-02-22T09:02:53.775Z,33.35
2019-02-22T09:05:22.561Z,31.87
2019-02-22T09:07:51.332Z,29.98
2019-02-22T09:10:20.139Z,28.98
2019-02-22T09:12:48.951Z,24.85
2019-02-22T09:15:17.803Z,27.93
2019-02-22T09:17:46.602Z,21.57
2019-02-22T09:20:15.436Z,20.62
2019-02-22T09:22:44.204Z,23.20
2019-02-22T09:25:13.077Z,20.37
2019-02-22T09:27:41.952Z,18.05
2019-02-22T09:30:11.366Z,20.25
2019-02-22T09:32:40.181Z,20.65
2019-02-22T09:35:10.421Z,20.80
2019-02-22T09:37:39.739Z,21.55
2019-02-22T09:40:09.961Z,20.20
2019-02-22T09:42:38.749Z,16.57
2019-02-22T09:45:08.855Z,17.85
2019-02-22T09:47:37.740Z,17.70
2019-02-22T09:50:08.274Z,22.20
2019-02-22T09:52:37.207Z,17.55
2019-02-22T09:55:07.622Z,15.63
2019-02-22T09:57:36.494Z,15.05
2019-02-22T10:00:07.299Z,14.98
2019-02-22T10:02:36.168Z,15.45
2019-02-22T10:05:05.318Z,13.48
2019-02-22T10:07:34.130Z,13.55
2019-02-22T10:10:02.994Z,15.23
2019-02-22T10:12:31.769Z,14.45
2019-02-22T10:15:00.551Z,14.73
2019-02-22T10:17:29.352Z,12.73
2019-02-22T10:19:58.155Z,14.07
2019-02-22T10:22:26.994Z,13.43
2019-02-22T10:24:55.823Z,13.35
2019-02-22T10:27:24.668Z,11.78
2019-02-22T10:29:53.482Z,12.33
2019-02-22T10:32:22.254Z,14.73
2019-02-22T10:34:51.058Z,12.58
2019-02-22T10:37:19.915Z,11.12
2019-02-22T10:39:48.991Z,11.45
2019-02-22T10:42:17.867Z,10.98
2019-02-22T10:44:46.720Z,10.08
2019-02-22T10:47:15.508Z,8.33
2019-02-22T10:49:44.306Z,9.53
2019-02-22T10:52:13.070Z,9.95
2019-02-22T10:54:41.876Z,9.95
2019-02-22T10:57:10.649Z,9.58
2019-02-22T10:59:39.442Z,9.50
2019-02-22T11:02:08.515Z,8.65
2019-02-22T11:04:37.389Z,9.15
2019-02-22T11:07:06.298Z,10.15
2019-02-22T11:09:35.186Z,11.80
2019-02-22T11:12:04.045Z,9.90
2019-02-22T11:14:32.857Z,10.50
2019-02-22T11:17:01.639Z,9.58
2019-02-22T11:19:38.320Z,8.25
2019-02-22T11:22:16.336Z,9.35
2019-02-22T11:24:54.328Z,8.63
2019-02-22T11:27:23.588Z,9.23
2019-02-22T11:29:52.408Z,7.83
2019-02-22T11:32:21.588Z,9.58
2019-02-22T11:34:50.363Z,8.75
2019-02-22T11:37:19.150Z,8.50
2019-02-22T11:39:47.936Z,9.43
2019-02-22T11:42:16.745Z,8.83
2019-02-22T11:44:45.553Z,8.78
2019-02-22T11:47:14.399Z,9.33
2019-02-22T11:49:43.189Z,10.85
2019-02-22T11:52:12.076Z,10.18
2019-02-22T11:54:40.846Z,9.95
2019-02-22T11:57:10.378Z,10.08
2019-02-22T11:59:39.244Z,9.00
2019-02-22T12:02:08.096Z,10.48
2019-02-22T12:04:36.904Z,8.55
2019-02-22T12:07:05.808Z,8.68
2019-02-22T12:09:35.037Z,8.25
2019-02-22T12:12:03.851Z,8.30
2019-02-22T12:14:33.097Z,8.48
2019-02-22T12:17:04.854Z,8.03
2019-02-22T12:19:33.663Z,7.60
2019-02-22T12:22:02.434Z,7.70
2019-02-22T12:24:31.221Z,8.80
2019-02-22T12:27:00.069Z,7.37
2019-02-22T12:29:29.022Z,8.13
2019-02-22T12:31:57.832Z,7.87
2019-02-22T12:34:26.616Z,8.23
2019-02-22T12:36:55.409Z,7.42
2019-02-22T12:39:24.289Z,6.55
2019-02-22T12:41:53.759Z,7.03
2019-02-22T12:44:22.698Z,7.25
2019-02-22T12:46:51.525Z,6.70
2019-02-22T12:49:20.325Z,7.80
2019-02-22T12:51:49.254Z,8.08
2019-02-22T12:54:18.025Z,9.53
2019-02-22T12:56:57.571Z,8.90
2019-02-22T12:59:17.784Z,8.98
2019-02-22T13:01:46.580Z,8.88
2019-02-22T13:04:15.387Z,8.48
2019-02-22T13:06:44.157Z,9.10
2019-02-22T13:09:13.005Z,11.38
2019-02-22T13:11:41.797Z,10.08
2019-02-22T13:14:10.571Z,8.43
2019-02-22T13:16:39.696Z,9.13
2019-02-22T13:19:08.467Z,9.20
2019-02-22T13:21:37.238Z,9.18
2019-02-22T13:24:06.102Z,10.85
2019-02-22T13:26:34.963Z,9.40
2019-02-22T13:29:04.969Z,9.13
2019-02-22T13:31:33.993Z,9.73
2019-02-22T13:34:02.859Z,9.35
2019-02-22T13:36:31.798Z,9.28
2019-02-22T13:39:00.635Z,9.33
2019-02-22T13:41:29.500Z,11.20
2019-02-22T13:43:58.332Z,10.68
2019-02-22T13:46:28.894Z,11.63
2019-02-22T13:48:57.887Z,13.05
2019-02-22T13:51:27.073Z,10.98
2019-02-22T13:53:55.874Z,12.70
2019-02-22T13:56:29.659Z,13.58
2019-02-22T13:58:55.128Z,12.78
2019-02-22T14:01:24.407Z,13.03
2019-02-22T14:03:53.176Z,13.72
2019-02-22T14:06:22.289Z,13.48
2019-02-22T14:08:51.117Z,14.45
2019-02-22T14:11:19.892Z,14.25
2019-02-22T14:13:48.761Z,14.80
2019-02-22T14:16:17.565Z,13.83
2019-02-22T14:18:46.355Z,12.65
2019-02-22T14:21:15.145Z,11.45
2019-02-22T14:23:43.955Z,12.25
2019-02-22T14:26:12.910Z,11.93
2019-02-22T14:28:41.690Z,13.18
2019-02-22T14:31:10.479Z,10.63
2019-02-22T14:33:39.247Z,11.28
2019-02-22T14:36:08.161Z,10.10
2019-02-22T14:38:37.134Z,11.60
2019-02-22T14:41:05.895Z,12.70
2019-02-22T14:43:34.754Z,11.63
2019-02-22T14:46:03.575Z,13.75
2019-02-22T14:48:32.350Z,15.83
2019-02-22T14:51:01.181Z,16.45
2019-02-22T14:53:29.952Z,16.12
2019-02-22T14:55:59.871Z,16.82
2019-02-22T14:58:28.806Z,17.27
2019-02-22T15:00:57.651Z,16.62
2019-02-22T15:03:26.458Z,17.27
2019-02-22T15:05:55.262Z,17.62
2019-02-22T15:08:24.108Z,16.75
2019-02-22T15:10:52.900Z,17.17
2019-02-22T15:13:21.670Z,17.73
2019-02-22T15:16:24.852Z,19.73
2019-02-22T15:18:53.681Z,18.37
2019-02-22T15:21:22.446Z,17.55
2019-02-22T15:23:51.226Z,18.73
2019-02-22T15:26:20.026Z,17.35
2019-02-22T15:28:48.805Z,18.48
2019-02-22T15:31:17.575Z,18.48
2019-02-22T15:33:46.384Z,18.35
2019-02-22T15:36:16.082Z,18.05
2019-02-22T15:38:45.066Z,17.35
2019-02-22T15:41:13.862Z,18.02
2019-02-22T15:43:42.666Z,16.57
2019-02-22T15:46:12.483Z,17.35
2019-02-22T15:48:41.450Z,18.23
2019-02-22T15:51:10.213Z,18.35
2019-02-22T15:53:39.029Z,20.20
2019-02-22T15:56:07.805Z,19.42
2019-02-22T15:58:36.568Z,18.50
2019-02-22T16:01:05.646Z,19.75
2019-02-22T16:03:57.836Z,19.07
2019-02-22T16:06:26.820Z,19.77
2019-02-22T16:08:55.733Z,20.02
2019-02-22T16:11:24.730Z,21.52
2019-02-22T16:13:53.610Z,22.62
2019-02-22T16:16:23.477Z,19.67
2019-02-22T16:18:52.438Z,22.45
2019-02-22T16:21:21.490Z,23.73
2019-02-22T16:23:50.258Z,23.87
2019-02-22T16:26:22.437Z,24.80
2019-02-22T16:28:51.240Z,25.43
2019-02-22T16:31:20.046Z,22.93
2019-02-22T16:33:48.936Z,21.55
2019-02-22T16:36:17.792Z,24.67
2019-02-22T16:38:46.547Z,25.05
2019-02-22T16:41:15.378Z,25.35
2019-02-22T16:43:44.173Z,25.12
2019-02-22T16:46:12.973Z,24.75
2019-02-22T16:48:41.809Z,24.67
2019-02-22T16:51:10.624Z,23.50
2019-02-22T16:53:39.388Z,24.23
2019-02-22T16:56:08.239Z,23.83
2019-02-22T16:58:37.036Z,23.02
2019-02-22T17:01:05.882Z,22.62
2019-02-22T17:03:34.994Z,23.02
2019-02-22T17:06:04.080Z,22.87
2019-02-22T17:08:32.863Z,19.62
2019-02-22T17:11:05.011Z,20.70
2019-02-22T17:13:33.784Z,20.52
2019-02-22T17:16:02.672Z,18.27
2019-02-22T17:18:31.446Z,18.45
2019-02-22T17:21:00.221Z,15.68
2019-02-22T17:23:29.029Z,15.10
2019-02-22T17:25:57.819Z,16.95
2019-02-22T17:28:29.298Z,15.48
2019-02-22T17:31:01.102Z,15.08
2019-02-22T17:33:29.866Z,14.15
2019-02-22T17:35:58.636Z,14.35
2019-02-22T17:38:27.400Z,13.88
2019-02-22T17:40:56.277Z,12.82
2019-02-22T17:43:25.146Z,13.40
2019-02-22T17:45:53.917Z,14.78
2019-02-22T17:48:22.691Z,13.83
2019-02-22T17:50:51.970Z,13.45
2019-02-22T17:53:20.747Z,13.43
2019-02-22T17:55:49.547Z,13.00
2019-02-22T17:58:24.481Z,13.93
2019-02-22T18:00:48.853Z,13.55
2019-02-22T18:03:17.645Z,13.00
2019-02-22T18:05:46.432Z,13.13
2019-02-22T18:08:15.498Z,13.72
2019-02-22T18:10:44.319Z,14.23
2019-02-22T18:13:15.892Z,12.45
2019-02-22T18:15:46.796Z,13.30
2019-02-22T18:18:16.824Z,13.53
2019-02-22T18:20:45.786Z,14.87
2019-02-22T18:23:14.593Z,15.45
2019-02-22T18:25:43.436Z,13.75
2019-02-22T18:28:12.205Z,14.50
2019-02-22T18:30:41.009Z,14.13
2019-02-22T18:33:10.955Z,13.72
2019-02-22T18:35:41.584Z,15.20
2019-02-22T18:38:10.362Z,14.85
2019-02-22T18:40:39.184Z,14.78
2019-02-22T18:43:11.359Z,14.80
2019-02-22T18:45:40.240Z,17.73
2019-02-22T18:48:09.050Z,13.10
2019-02-22T18:50:37.818Z,14.45
2019-02-22T18:53:06.958Z,16.10
2019-02-22T18:55:35.729Z,15.30
2019-02-22T18:58:04.620Z,14.68
2019-02-22T19:00:33.392Z,17.23
2019-02-22T19:03:02.171Z,14.90
2019-02-22T19:05:31.046Z,14.33
2019-02-22T19:07:59.824Z,15.80
2019-02-22T19:10:28.603Z,14.98
2019-02-22T19:12:57.420Z,15.38
2019-02-22T19:15:26.199Z,15.60
2019-02-22T19:17:54.992Z,15.90
2019-02-22T19:20:26.216Z,17.60
2019-02-22T19:22:54.984Z,15.95
2019-02-22T19:25:23.756Z,14.23
2019-02-22T19:27:52.566Z,16.05
2019-02-22T19:30:21.404Z,16.12
2019-02-22T19:32:50.174Z,16.02
2019-02-22T19:35:19.091Z,14.83
2019-02-22T19:37:47.855Z,16.65
2019-02-22T19:40:18.530Z,15.95
2019-02-22T19:42:47.338Z,15.85
2019-02-22T19:45:16.160Z,16.23
2019-02-22T19:47:45.035Z,17.23
2019-02-22T19:50:14.037Z,16.25
2019-02-22T19:52:42.952Z,16.27
2019-02-22T19:55:13.079Z,17.23
2019-02-22T19:57:41.873Z,18.20
2019-02-22T20:00:13.303Z,18.07
2019-02-22T20:02:42.088Z,17.90
2019-02-22T20:05:11.283Z,18.05
2019-02-22T20:07:40.356Z,18.60
2019-02-22T20:10:17.723Z,18.77
2019-02-22T20:12:41.535Z,19.50
2019-02-22T20:15:12.039Z,19.17
2019-02-22T20:17:40.955Z,20.80
2019-02-22T20:20:11.824Z,20.90
2019-02-22T20:22:40.679Z,19.98
2019-02-22T20:25:11.114Z,20.70
2019-02-22T20:27:39.911Z,20.32
2019-02-22T20:30:11.224Z,21.40
2019-02-22T20:32:40.413Z,21.77
2019-02-22T20:35:11.465Z,21.35
2019-02-22T20:37:40.288Z,22.93
2019-02-22T20:40:09.211Z,24.23
2019-02-22T20:42:38.355Z,23.85
2019-02-22T20:45:07.822Z,23.67
2019-02-22T20:47:36.625Z,24.43
2019-02-22T20:50:06.011Z,23.62
2019-02-22T20:52:34.821Z,22.87
2019-02-22T20:55:03.723Z,23.00
2019-02-22T20:57:34.770Z,22.15
2019-02-22T21:00:03.161Z,23.73
2019-02-22T21:02:31.964Z,23.02
2019-02-22T21:05:00.751Z,23.67
2019-02-22T21:07:29.802Z,23.42
2019-02-22T21:09:58.599Z,22.98
2019-02-22T21:12:27.384Z,23.92
2019-02-22T21:14:56.180Z,22.48
2019-02-22T21:17:24.986Z,22.10
2019-02-22T21:19:53.761Z,24.55
2019-02-22T21:22:23.994Z,23.35
2019-02-22T21:24:52.824Z,22.32
2019-02-22T21:27:21.609Z,23.25
2019-02-22T21:29:50.394Z,21.33
2019-02-22T21:32:19.191Z,22.32
2019-02-22T21:34:48.949Z,21.48
2019-02-22T21:37:17.886Z,20.88
2019-02-22T21:39:46.762Z,21.17
2019-02-22T21:42:20.180Z,21.10
2019-02-22T21:44:46.046Z,21.07
2019-02-22T21:47:14.845Z,20.68
2019-02-22T21:49:43.675Z,20.30
2019-02-22T21:52:12.476Z,19.77
2019-02-22T21:54:41.240Z,18.77
2019-02-22T21:57:10.056Z,21.25
2019-02-22T21:59:38.830Z,21.30
2019-02-22T22:02:07.589Z,20.08
2019-02-22T22:04:36.395Z,19.62
2019-02-22T22:07:05.260Z,17.50
2019-02-22T22:09:34.037Z,20.77
2019-02-22T22:12:02.806Z,19.27
2019-02-22T22:14:31.656Z,19.85
2019-02-22T22:17:00.417Z,21.35
2019-02-22T22:19:29.187Z,22.15
2019-02-22T22:21:57.990Z,20.17
2019-02-22T22:24:26.769Z,18.87
2019-02-22T22:26:55.586Z,20.05
2019-02-22T22:29:24.397Z,18.60
2019-02-22T22:31:53.171Z,20.05
2019-02-22T22:34:21.948Z,20.97
2019-02-22T22:36:50.770Z,20.62
2019-02-22T22:39:19.555Z,20.95
2019-02-22T22:41:48.367Z,20.70
2019-02-22T22:44:17.162Z,18.90
2019-02-22T22:46:45.949Z,17.87
2019-02-22T22:49:14.742Z,20.97
2019-02-22T22:51:43.543Z,19.40
2019-02-22T22:54:12.403Z,19.25
2019-02-22T22:56:41.182Z,19.40
2019-02-22T22:59:10.029Z,18.95
2019-02-22T23:01:39.446Z,19.32
2019-02-22T23:04:08.199Z,19.17
2019-02-22T23:06:37.049Z,20.00
2019-02-22T23:09:10.478Z,19.25
2019-02-22T23:11:39.323Z,19.77
2019-02-22T23:14:08.164Z,19.15
2019-02-22T23:16:36.962Z,20.25
2019-02-22T23:19:05.721Z,20.40
2019-02-22T23:21:34.501Z,20.32
2019-02-22T23:24:03.302Z,19.65
2019-02-22T23:26:32.149Z,20.40
2019-02-22T23:29:01.889Z,20.08
2019-02-22T23:31:30.788Z,21.12
2019-02-22T23:33:59.588Z,21.07
2019-02-22T23:36:28.385Z,20.80
2019-02-22T23:38:57.161Z,20.40
2019-02-22T23:41:25.977Z,21.37
2019-02-22T23:43:54.816Z,19.98
2019-02-22T23:46:23.587Z,19.67
2019-02-22T23:48:52.394Z,19.23
2019-02-22T23:51:21.258Z,20.00
2019-02-22T23:53:50.033Z,17.57
2019-02-22T23:56:18.858Z,18.62
2019-02-22T23:58:47.619Z,18.75
